Skip Navigation LinksHome page > Weather > Current weather Skip Navigation Links

Current Weather

New Tokyo International (Narita), Tokyo

For information only: do not use for flight planning or navigation.
Latest weather
Observation time Monday, October 20, 2014 9:30 PM JST
Local time Monday, October 20, 2014 10:01 PM JST
Flight conditions Visual Meteorological Conditions
Winds
Wind direction South (190°)
Wind speed 3 mph
Visibility 6.2 mi.
Present weather light rain
Sky condition
Ceiling 11,000 ft. overcast
Cloud layer few clouds 3,000 ft.
Cloud layer scattered clouds 6,000 ft.
Cloud layer overcast 11,000 ft.
Temperature 63°F
Dewpoint 57°F
Altimeter 30.18 in.Hg
Derived measurements
Relative humidity 83%
Density altitude 307 ft.
Remarks
No significant changes expected in the next two hours.
METAR RJAA 201230Z 19003KT 9999 -RA FEW030 SCT060 OVC110 17/14 Q1022 NOSIG RMK 1CU030 3SC060 8AS110 A3018

Settings

Location code

InnerDrive.Weather 4.0.5399.0 Release CLR 4.0.30319.34014
Copyright ©2014 Inner Drive Technology. All rights reserved. Portions Copyright ©1986-2014 David Braverman.

Find weather

Site navigation


Skip Navigation Links

Place info

Page info

PayPal - The safer, easier way to pay online!

Return home.

Copyright ©2014 Inner Drive Technology. Purveyors of fine, hand-crafted computer software. Page printed 2014-10-20T13:01:46 UTC.